Time;durP1;ratioP1;P1;durP2;ratioP2;P2;SDS_P1;SDS_P2;PMS_P1;PMS_P2;Temp;Humidity;BMP_temperature;BMP_pressure;BME280_temperature;BME280_humidity;BME280_pressure;Samples;Min_cycle;Max_cycle;Signal;HPM_P1;HPM_P2
2021/09/07 00:01:15;;;;;;;15.82;11.80;;;;;;;18.58;66.77;101117.97;5039433;28;20036;-80
2021/09/07 00:03:42;;;;;;;15.85;11.93;;;;;;;18.55;66.69;101115.50;5038958;28;20033;-81
2021/09/07 00:06:09;;;;;;;15.50;11.40;;;;;;;18.52;66.89;101114.84;5032986;28;20132;-81
2021/09/07 00:08:36;;;;;;;17.65;11.95;;;;;;;18.49;66.96;101121.25;5015032;28;20064;-81
2021/09/07 00:11:02;;;;;;;17.85;12.05;;;;;;;18.44;67.11;101118.03;5013924;28;20046;-81
2021/09/07 00:13:29;;;;;;;19.17;11.82;;;;;;;18.41;67.04;101114.72;5028232;28;20081;-81
2021/09/07 00:15:56;;;;;;;15.15;11.10;;;;;;;18.38;67.22;101114.94;5028176;28;20121;-80
2021/09/07 00:18:23;;;;;;;16.88;12.20;;;;;;;18.34;67.20;101119.63;5025800;28;20109;-81
2021/09/07 00:20:49;;;;;;;17.45;12.13;;;;;;;18.31;67.13;101116.28;5017286;28;20048;-81
2021/09/07 00:23:17;;;;;;;16.67;11.45;;;;;;;18.30;67.61;101119.94;5001172;28;20050;-81
2021/09/07 00:25:45;;;;;;;18.35;12.52;;;;;;;18.22;67.21;101118.66;5016953;28;20054;-81
2021/09/07 00:28:13;;;;;;;17.75;11.98;;;;;;;18.19;67.02;101124.22;5006858;28;20056;-81
2021/09/07 00:30:40;;;;;;;17.88;12.98;;;;;;;18.16;66.92;101119.03;5007547;28;20498;-81
2021/09/07 00:33:08;;;;;;;16.35;12.20;;;;;;;18.13;66.83;101113.03;5003436;28;20096;-81
2021/09/07 00:35:35;;;;;;;19.92;12.52;;;;;;;18.09;66.92;101116.88;5017146;28;20136;-81
2021/09/07 00:38:02;;;;;;;18.90;13.00;;;;;;;18.11;67.16;101112.25;5019282;28;20056;-81
2021/09/07 00:40:29;;;;;;;19.40;12.75;;;;;;;18.08;67.58;101109.81;5011248;28;20858;-81
2021/09/07 00:42:57;;;;;;;19.00;13.23;;;;;;;18.05;67.36;101121.59;5013543;28;20050;-81
2021/09/07 00:45:24;;;;;;;19.25;13.13;;;;;;;18.00;67.16;101115.66;5016672;28;20077;-81
2021/09/07 00:47:51;;;;;;;18.58;12.35;;;;;;;17.96;67.11;101118.63;5016735;28;20050;-81
2021/09/07 00:50:18;;;;;;;18.25;13.00;;;;;;;17.96;67.19;101113.28;5018719;28;20063;-81
2021/09/07 00:52:45;;;;;;;20.48;13.10;;;;;;;17.95;67.45;101114.25;5011493;28;20046;-81
2021/09/07 00:55:12;;;;;;;18.13;12.73;;;;;;;17.95;67.29;101112.41;5014790;28;20045;-81
2021/09/07 00:57:41;;;;;;;19.42;12.93;;;;;;;17.94;67.12;101109.88;4994643;28;20042;-81
2021/09/07 01:00:08;;;;;;;17.20;12.32;;;;;;;17.93;66.96;101103.66;5012992;28;20057;-81
2021/09/07 01:02:35;;;;;;;21.00;12.55;;;;;;;17.94;66.96;101104.50;5015769;28;20050;-81
2021/09/07 01:05:02;;;;;;;21.25;12.18;;;;;;;17.88;67.12;101095.91;5014377;28;20124;-81
2021/09/07 01:07:33;;;;;;;15.73;12.02;;;;;;;17.85;66.89;101101.47;5004899;28;20066;-81
2021/09/07 01:10:02;;;;;;;19.42;13.20;;;;;;;17.81;67.00;101107.97;5017201;28;20056;-81
2021/09/07 01:12:29;;;;;;;17.50;11.98;;;;;;;17.83;67.16;101110.56;5009454;28;20072;-81
2021/09/07 01:14:56;;;;;;;16.35;12.75;;;;;;;17.81;67.23;101105.28;5010442;28;20046;-81
2021/09/07 01:17:22;;;;;;;17.90;12.05;;;;;;;17.82;67.14;101108.84;5003979;28;20086;-83
2021/09/07 01:19:51;;;;;;;18.80;12.52;;;;;;;17.80;66.72;101114.28;5010077;28;20629;-81
2021/09/07 01:22:19;;;;;;;19.00;12.60;;;;;;;17.80;66.79;101114.28;5015714;28;20045;-81
2021/09/07 01:24:47;;;;;;;17.92;12.73;;;;;;;17.78;66.37;101115.38;5014222;28;20690;-81
2021/09/07 01:27:15;;;;;;;19.52;12.50;;;;;;;17.72;66.15;101108.59;5012817;28;20064;-81
2021/09/07 01:29:42;;;;;;;18.85;12.45;;;;;;;17.68;66.21;101111.56;5016070;28;20050;-81
2021/09/07 01:32:12;;;;;;;20.15;12.63;;;;;;;17.69;65.90;101114.16;5015638;28;20048;-83
2021/09/07 01:34:40;;;;;;;17.27;12.57;;;;;;;17.69;65.95;101110.59;5018988;28;20112;-81
2021/09/07 01:37:08;;;;;;;21.98;12.90;;;;;;;17.67;66.07;101113.38;5020937;28;20050;-81
2021/09/07 01:39:36;;;;;;;18.75;13.15;;;;;;;17.61;66.28;101104.88;5017593;28;20050;-82
2021/09/07 01:42:05;;;;;;;16.00;12.10;;;;;;;17.66;66.11;101108.97;5016336;28;20057;-81
2021/09/07 01:44:32;;;;;;;19.02;12.80;;;;;;;17.65;65.53;101114.44;5016292;28;20517;-81
2021/09/07 01:47:00;;;;;;;17.15;11.98;;;;;;;17.64;65.25;101105.53;5007855;28;20581;-81
2021/09/07 01:49:27;;;;;;;19.38;12.32;;;;;;;17.67;65.74;101117.88;5013866;28;20465;-81
2021/09/07 01:51:54;;;;;;;19.83;13.43;;;;;;;17.65;65.63;101117.13;4999877;28;20047;-81
2021/09/07 01:54:21;;;;;;;16.48;11.75;;;;;;;17.67;65.45;101115.19;5017228;28;20488;-81
2021/09/07 01:56:48;;;;;;;18.95;12.90;;;;;;;17.65;65.53;101111.75;4999457;28;20473;-81
2021/09/07 01:59:15;;;;;;;17.45;12.23;;;;;;;17.64;65.43;101110.03;5028776;28;20049;-81
2021/09/07 02:01:43;;;;;;;18.30;13.27;;;;;;;17.61;66.18;101111.09;5015940;28;20056;-81
2021/09/07 02:04:11;;;;;;;19.87;13.23;;;;;;;17.61;66.40;101116.44;5012555;28;20042;-81
2021/09/07 02:06:38;;;;;;;18.23;13.55;;;;;;;17.60;66.30;101106.69;5005566;28;20842;-81
2021/09/07 02:09:06;;;;;;;18.38;12.98;;;;;;;17.56;66.25;101107.84;5015970;28;20053;-81
2021/09/07 02:11:34;;;;;;;19.48;13.43;;;;;;;17.51;66.50;101107.25;5007701;28;20046;-81
2021/09/07 02:14:01;;;;;;;18.85;12.68;;;;;;;17.47;67.06;101097.72;5016038;28;20084;-81
2021/09/07 02:16:27;;;;;;;19.55;13.32;;;;;;;17.45;67.14;101103.19;5007665;28;20133;-80
2021/09/07 02:18:54;;;;;;;19.55;13.35;;;;;;;17.44;67.44;101104.13;4978006;28;20109;-82
2021/09/07 02:21:21;;;;;;;17.42;12.80;;;;;;;17.44;67.33;101103.28;4993602;28;20137;-81
2021/09/07 02:23:47;;;;;;;19.52;13.38;;;;;;;17.44;67.19;101105.97;5013511;28;20050;-81
2021/09/07 02:26:14;;;;;;;19.83;13.30;;;;;;;17.42;67.48;101100.69;5014790;28;20474;-81
2021/09/07 02:28:41;;;;;;;18.02;13.25;;;;;;;17.41;67.56;101098.97;5018282;28;20044;-81
2021/09/07 02:31:08;;;;;;;21.38;13.88;;;;;;;17.40;67.79;101099.94;5025874;28;20054;-80
2021/09/07 02:33:35;;;;;;;17.80;13.15;;;;;;;17.37;67.63;101094.78;5021282;28;20058;-80
2021/09/07 02:36:02;;;;;;;18.52;13.48;;;;;;;17.37;67.78;101092.09;5023754;28;20048;-81
2021/09/07 02:38:29;;;;;;;18.17;12.82;;;;;;;17.38;68.16;101098.31;5026854;28;20501;-81
2021/09/07 02:40:59;;;;;;;17.58;12.35;;;;;;;17.36;68.20;101093.06;5037229;28;20145;-80
2021/09/07 02:43:26;;;;;;;17.20;12.50;;;;;;;17.35;68.19;101094.00;5036472;28;20034;-81
2021/09/07 02:45:53;;;;;;;18.70;13.07;;;;;;;17.32;68.13;101088.84;5024635;28;20219;-81
2021/09/07 02:48:20;;;;;;;17.48;12.52;;;;;;;17.31;68.03;101089.81;5031692;28;20081;-80
2021/09/07 02:50:47;;;;;;;20.42;13.63;;;;;;;17.29;67.83;101085.53;5030508;28;20106;-81
2021/09/07 02:53:13;;;;;;;17.52;12.88;;;;;;;17.26;68.41;101088.38;5023694;28;20058;-80
2021/09/07 02:55:44;;;;;;;19.38;13.45;;;;;;;17.22;68.51;101085.03;5025139;28;20046;-80
2021/09/07 02:58:11;;;;;;;21.50;13.30;;;;;;;17.18;68.88;101083.50;5008480;28;20060;-80
2021/09/07 03:00:38;;;;;;;19.02;12.80;;;;;;;17.16;69.18;101080.94;5030270;28;20225;-81
2021/09/07 03:03:07;;;;;;;19.83;12.25;;;;;;;17.15;69.52;101079.25;5023760;28;20073;-81
2021/09/07 03:05:33;;;;;;;16.52;12.65;;;;;;;17.13;70.01;101083.81;5031222;28;20061;-81
2021/09/07 03:08:00;;;;;;;17.80;12.55;;;;;;;17.13;69.91;101085.63;5029471;28;20042;-81
2021/09/07 03:10:27;;;;;;;17.52;12.77;;;;;;;17.12;70.08;101092.81;5036190;28;20141;-81
2021/09/07 03:12:55;;;;;;;19.10;13.00;;;;;;;17.08;70.37;101085.06;5034640;28;20042;-81
2021/09/07 03:15:22;;;;;;;20.73;12.85;;;;;;;17.08;70.80;101091.28;5038495;28;20113;-80
2021/09/07 03:17:49;;;;;;;17.83;12.90;;;;;;;17.06;70.87;101082.47;5040187;28;20089;-80
2021/09/07 03:20:16;;;;;;;17.40;12.93;;;;;;;16.97;71.07;101075.03;5038053;28;20037;-80
2021/09/07 03:22:44;;;;;;;20.45;13.38;;;;;;;16.98;71.33;101087.47;5021375;28;20030;-81
2021/09/07 03:25:11;;;;;;;20.00;13.40;;;;;;;16.95;71.79;101079.63;5008007;28;20048;-81
2021/09/07 03:27:38;;;;;;;19.90;13.30;;;;;;;16.93;71.72;101084.22;5021585;28;20053;-81
2021/09/07 03:30:06;;;;;;;20.00;12.95;;;;;;;16.94;71.73;101074.38;5013239;28;20052;-81
2021/09/07 03:32:33;;;;;;;19.10;13.40;;;;;;;16.92;71.95;101073.59;5001305;28;20241;-80
2021/09/07 03:34:59;;;;;;;17.67;12.90;;;;;;;16.91;71.98;101072.75;5011549;28;20046;-81
2021/09/07 03:37:26;;;;;;;18.30;12.30;;;;;;;16.87;72.35;101076.56;5021346;28;20052;-81
2021/09/07 03:39:52;;;;;;;20.05;13.20;;;;;;;16.84;72.79;101071.41;5003159;28;20125;-81
2021/09/07 03:42:19;;;;;;;19.08;12.98;;;;;;;16.81;72.85;101071.59;5019678;28;20054;-81
2021/09/07 03:44:46;;;;;;;19.42;13.25;;;;;;;16.79;73.69;101076.19;5030076;28;20056;-81
2021/09/07 03:47:12;;;;;;;18.63;13.27;;;;;;;16.77;73.52;101080.75;5023522;28;20128;-81
2021/09/07 03:49:40;;;;;;;22.10;13.50;;;;;;;16.73;73.44;101082.75;5027435;28;20540;-80
2021/09/07 03:52:09;;;;;;;20.35;12.88;;;;;;;16.70;73.66;101082.06;5030489;28;20060;-80
2021/09/07 03:54:36;;;;;;;18.73;13.50;;;;;;;16.68;73.85;101081.34;5026909;28;20073;-81
2021/09/07 03:57:04;;;;;;;20.60;13.95;;;;;;;16.63;73.71;101081.63;4989220;28;20945;-81
2021/09/07 03:59:32;;;;;;;21.02;14.15;;;;;;;16.61;73.22;101088.84;5014569;28;20052;-81
2021/09/07 04:02:00;;;;;;;21.25;12.52;;;;;;;16.59;72.96;101082.72;5017923;28;20117;-81
2021/09/07 04:04:28;;;;;;;18.98;13.18;;;;;;;16.61;72.83;101090.66;5014979;28;20139;-81
2021/09/07 04:06:54;;;;;;;20.52;13.63;;;;;;;16.63;72.91;101096.81;5007339;28;20045;-80
2021/09/07 04:09:23;;;;;;;20.13;13.80;;;;;;;16.59;72.92;101088.06;5018592;28;20054;-81
2021/09/07 04:11:50;;;;;;;19.00;13.63;;;;;;;16.58;72.63;101086.34;5011044;28;20050;-81
2021/09/07 04:14:17;;;;;;;19.60;13.18;;;;;;;16.62;72.66;101087.03;5010978;28;20046;-80
2021/09/07 04:16:47;;;;;;;20.50;13.73;;;;;;;16.64;72.61;101091.34;5021137;28;20329;-81
2021/09/07 04:19:14;;;;;;;19.27;14.13;;;;;;;16.66;72.63;101093.94;5019211;28;20711;-81
2021/09/07 04:21:42;;;;;;;18.85;13.27;;;;;;;16.69;72.76;101096.41;5019784;28;20045;-81
2021/09/07 04:24:08;;;;;;;17.63;12.90;;;;;;;16.72;72.38;101085.53;5016913;28;20053;-81
2021/09/07 04:26:35;;;;;;;21.50;14.15;;;;;;;16.74;72.39;101087.16;5016780;28;20564;-81
2021/09/07 04:29:02;;;;;;;21.60;13.85;;;;;;;16.74;71.65;101080.94;5015502;28;20046;-81
2021/09/07 04:31:31;;;;;;;18.73;13.50;;;;;;;16.75;70.80;101080.00;5016306;28;20046;-81
2021/09/07 04:33:59;;;;;;;20.88;13.57;;;;;;;16.76;70.84;101087.94;5014280;28;20057;-81
2021/09/07 04:36:26;;;;;;;19.42;13.73;;;;;;;16.77;70.75;101091.47;5024676;28;20796;-81
2021/09/07 04:38:53;;;;;;;20.30;13.38;;;;;;;16.78;70.54;101085.16;5017094;28;20046;-81
2021/09/07 04:41:22;;;;;;;20.17;13.73;;;;;;;16.78;70.61;101079.81;5007649;28;20302;-81
2021/09/07 04:43:49;;;;;;;20.77;14.55;;;;;;;16.78;70.58;101074.47;5017013;28;20056;-81
2021/09/07 04:46:17;;;;;;;19.45;14.05;;;;;;;16.77;70.61;101075.41;5012596;28;20059;-81
2021/09/07 04:48:46;;;;;;;22.90;14.68;;;;;;;16.79;70.17;101078.84;5010891;28;20060;-81
2021/09/07 04:51:12;;;;;;;21.55;13.38;;;;;;;16.78;70.73;101083.34;5015465;28;20038;-81
2021/09/07 04:53:39;;;;;;;18.27;13.27;;;;;;;16.77;70.45;101078.09;5015784;28;20050;-81
2021/09/07 04:56:06;;;;;;;21.33;13.85;;;;;;;16.75;70.70;101080.84;5008963;28;20041;-81
2021/09/07 04:58:32;;;;;;;19.98;14.15;;;;;;;16.79;70.42;101084.22;5012498;28;20048;-81
2021/09/07 05:00:59;;;;;;;20.45;13.45;;;;;;;16.81;70.38;101083.16;5002638;28;20042;-81
2021/09/07 05:03:26;;;;;;;19.00;13.27;;;;;;;16.82;70.75;101084.88;5019687;28;20102;-80
2021/09/07 05:05:59;;;;;;;20.15;13.60;;;;;;;16.86;70.25;101092.69;5035413;28;20049;-80
2021/09/07 05:08:27;;;;;;;20.55;13.55;;;;;;;16.84;70.27;101090.97;5043144;28;20042;-80
2021/09/07 05:10:54;;;;;;;19.65;13.82;;;;;;;16.86;70.71;101096.22;5028316;28;20044;-80
2021/09/07 05:13:21;;;;;;;19.20;13.75;;;;;;;16.86;71.06;101090.03;5024314;28;20113;-80
2021/09/07 05:15:47;;;;;;;19.65;13.55;;;;;;;16.89;71.07;101101.41;5019803;28;20038;-81
2021/09/07 05:18:16;;;;;;;21.95;14.23;;;;;;;16.89;70.84;101109.41;5015519;28;20046;-81
2021/09/07 05:20:43;;;;;;;19.80;13.75;;;;;;;16.88;70.81;101102.34;5005164;28;20050;-81
2021/09/07 05:23:11;;;;;;;19.13;13.27;;;;;;;16.97;71.08;101107.16;5017200;28;20048;-81
2021/09/07 05:25:38;;;;;;;23.88;14.93;;;;;;;16.99;70.24;101118.63;5009144;28;20047;-81
2021/09/07 05:28:06;;;;;;;20.05;13.65;;;;;;;17.01;69.67;101116.69;5009440;28;20068;-81
2021/09/07 05:30:33;;;;;;;19.00;13.68;;;;;;;17.02;69.92;101118.41;5016697;28;20529;-81
2021/09/07 05:33:00;;;;;;;22.35;13.77;;;;;;;17.06;69.54;101117.25;4996149;28;20455;-81
2021/09/07 05:35:28;;;;;;;19.65;13.20;;;;;;;17.10;70.10;101115.25;5018060;28;20406;-80
2021/09/07 05:37:56;;;;;;;20.65;14.02;;;;;;;17.12;69.77;101114.22;4997413;28;20129;-81
2021/09/07 05:40:24;;;;;;;21.52;14.10;;;;;;;17.15;69.74;101119.38;5011861;28;20046;-81
2021/09/07 05:42:52;;;;;;;20.92;14.15;;;;;;;17.18;69.38;101119.16;5010220;28;20046;-80
2021/09/07 05:45:18;;;;;;;19.48;14.05;;;;;;;17.23;68.79;101113.53;5020495;28;20061;-81
2021/09/07 05:47:45;;;;;;;19.73;13.60;;;;;;;17.24;68.70;101122.41;5017426;28;20063;-81
2021/09/07 05:50:16;;;;;;;19.15;12.95;;;;;;;17.26;67.94;101131.22;5025411;28;20064;-81
2021/09/07 05:52:43;;;;;;;22.63;13.93;;;;;;;17.33;68.36;101128.03;5035330;28;20046;-81
2021/09/07 05:55:11;;;;;;;19.58;13.65;;;;;;;17.38;68.22;101131.28;5035287;28;20056;-81
2021/09/07 05:57:39;;;;;;;21.10;14.85;;;;;;;17.46;68.33;101129.00;5035705;28;20030;-81
2021/09/07 06:00:06;;;;;;;20.52;13.93;;;;;;;17.54;68.07;101133.84;4989521;28;20050;-81
2021/09/07 06:02:35;;;;;;;20.17;14.35;;;;;;;17.58;67.38;101130.03;4990228;28;20053;-81
2021/09/07 06:05:06;;;;;;;20.10;13.63;;;;;;;17.64;67.30;101131.47;4988228;28;20064;-80
2021/09/07 06:07:34;;;;;;;20.20;13.95;;;;;;;17.72;67.20;101132.69;4999778;28;20052;-82
2021/09/07 06:10:02;;;;;;;21.40;13.60;;;;;;;17.79;66.27;101136.69;5013374;28;20069;-81
2021/09/07 06:12:30;;;;;;;21.90;14.10;;;;;;;17.88;66.34;101140.59;5018081;28;20137;-81
2021/09/07 06:14:57;;;;;;;21.65;14.60;;;;;;;17.97;66.21;101133.75;5007988;28;20053;-82
2021/09/07 06:17:24;;;;;;;20.95;14.52;;;;;;;18.02;65.56;101137.00;5013118;28;20055;-82
2021/09/07 06:19:51;;;;;;;21.35;13.85;;;;;;;18.07;65.41;101132.22;5010687;28;20062;-82
2021/09/07 06:22:18;;;;;;;20.33;13.52;;;;;;;18.08;65.79;101136.63;5018036;28;20045;-82
2021/09/07 06:24:46;;;;;;;22.73;14.13;;;;;;;18.11;65.84;101131.88;5018692;28;20394;-82
2021/09/07 06:27:13;;;;;;;22.40;14.70;;;;;;;18.18;64.89;101135.03;4995501;28;20054;-82
2021/09/07 06:29:39;;;;;;;21.10;14.00;;;;;;;18.22;64.50;101147.28;5016241;28;20046;-82
2021/09/07 06:32:06;;;;;;;23.10;14.77;;;;;;;18.21;64.79;101146.41;5014440;28;20046;-82
2021/09/07 06:34:35;;;;;;;22.30;14.63;;;;;;;18.27;64.70;101146.94;4997557;28;20046;-82
2021/09/07 06:37:02;;;;;;;23.70;14.63;;;;;;;18.32;63.98;101143.00;5016371;28;20523;-82
2021/09/07 06:39:29;;;;;;;20.45;14.18;;;;;;;18.36;63.82;101135.63;5016643;28;20480;-82
2021/09/07 06:41:56;;;;;;;23.10;15.13;;;;;;;18.43;63.47;101145.81;5013889;28;20072;-81
2021/09/07 06:44:23;;;;;;;24.45;15.95;;;;;;;18.48;63.49;101141.00;5014704;28;20042;-82
2021/09/07 06:46:49;;;;;;;24.60;15.10;;;;;;;18.57;62.80;101158.31;5021393;28;20046;-82
2021/09/07 06:49:17;;;;;;;20.80;14.25;;;;;;;18.63;62.98;101157.91;5019221;28;20580;-82
2021/09/07 06:51:43;;;;;;;20.48;14.13;;;;;;;18.69;62.59;101154.81;5017996;28;20121;-82
2021/09/07 06:54:10;;;;;;;22.27;14.55;;;;;;;18.74;62.23;101149.09;5020074;28;20072;-82
2021/09/07 06:56:36;;;;;;;22.00;14.80;;;;;;;18.77;62.48;101157.81;5018652;28;20325;-82
2021/09/07 06:59:03;;;;;;;23.08;15.57;;;;;;;18.83;62.06;101149.34;5016053;28;20381;-82
2021/09/07 07:01:30;;;;;;;24.02;14.60;;;;;;;18.90;62.83;101152.44;5004738;28;20846;-81
2021/09/07 07:03:58;;;;;;;22.60;14.05;;;;;;;18.96;62.00;101143.97;5021688;28;20046;-83
2021/09/07 07:06:26;;;;;;;24.70;14.77;;;;;;;19.00;61.61;101145.50;5026076;28;20072;-81
2021/09/07 07:08:54;;;;;;;22.67;14.30;;;;;;;19.00;61.68;101147.31;5018037;28;20046;-80
2021/09/07 07:11:20;;;;;;;22.25;14.60;;;;;;;19.03;61.70;101147.97;5030577;28;20104;-82
2021/09/07 07:13:47;;;;;;;21.23;15.02;;;;;;;19.09;61.39;101152.88;5025289;28;20104;-80
2021/09/07 07:16:16;;;;;;;19.83;14.07;;;;;;;19.08;62.30;101152.97;5029026;28;20119;-80
2021/09/07 07:18:42;;;;;;;19.35;13.98;;;;;;;19.17;61.79;101153.22;5022301;28;20056;-80
2021/09/07 07:21:09;;;;;;;21.52;14.20;;;;;;;19.30;62.09;101155.03;5012262;28;20145;-81
2021/09/07 07:23:37;;;;;;;22.20;15.05;;;;;;;19.40;60.80;101161.44;5017398;28;20058;-82
2021/09/07 07:26:04;;;;;;;20.50;14.25;;;;;;;19.44;60.63;101155.75;5023246;28;20062;-82
2021/09/07 07:28:30;;;;;;;19.58;14.05;;;;;;;19.48;60.68;101161.78;5022334;28;20050;-82
2021/09/07 07:30:57;;;;;;;22.83;14.57;;;;;;;19.50;61.11;101166.09;5031806;28;20056;-81
2021/09/07 07:33:25;;;;;;;20.48;15.18;;;;;;;19.58;60.33;101157.47;5023216;28;20050;-81
2021/09/07 07:35:51;;;;;;;22.60;15.02;;;;;;;19.60;60.30;101161.75;5032457;28;20046;-80
2021/09/07 07:38:18;;;;;;;21.13;14.27;;;;;;;19.65;60.81;101166.81;5025058;28;20058;-81
2021/09/07 07:40:45;;;;;;;24.38;15.10;;;;;;;19.70;60.74;101166.47;5002313;28;20054;-81
2021/09/07 07:43:14;;;;;;;21.48;14.20;;;;;;;19.72;60.33;101162.69;5004832;28;20052;-83
2021/09/07 07:45:42;;;;;;;23.58;15.25;;;;;;;19.81;60.19;101175.47;5035223;28;20046;-82
2021/09/07 07:48:09;;;;;;;27.05;15.68;;;;;;;19.72;60.13;101173.44;5038990;28;20089;-79
2021/09/07 07:50:36;;;;;;;22.25;14.40;;;;;;;19.68;60.73;101177.31;5029113;28;20057;-79
2021/09/07 07:53:03;;;;;;;23.30;14.93;;;;;;;19.70;60.76;101179.91;5034989;28;20049;-80
2021/09/07 07:55:30;;;;;;;21.50;15.20;;;;;;;19.74;60.69;101178.72;5017346;28;20102;-81
2021/09/07 07:58:00;;;;;;;22.05;15.25;;;;;;;19.75;60.35;101189.34;5024843;28;20048;-81
2021/09/07 08:00:27;;;;;;;23.00;14.75;;;;;;;19.78;60.62;101189.13;5020038;28;20613;-81
2021/09/07 08:02:54;;;;;;;23.17;14.90;;;;;;;19.90;59.75;101188.22;5011332;28;20572;-81
2021/09/07 08:05:35;;;;;;;21.50;14.80;;;;;;;19.99;60.12;101191.22;5005404;28;20050;-81
2021/09/07 08:08:02;;;;;;;22.55;15.10;;;;;;;20.11;59.10;101184.94;5015787;28;20058;-82
2021/09/07 08:10:29;;;;;;;22.33;14.77;;;;;;;20.13;58.97;101189.25;5016697;28;20076;-82
2021/09/07 08:12:56;;;;;;;22.88;15.43;;;;;;;20.20;59.81;101182.41;5018813;28;20049;-82
2021/09/07 08:15:23;;;;;;;22.40;15.20;;;;;;;20.36;59.84;101182.16;5001470;28;20050;-82
2021/09/07 08:17:50;;;;;;;20.67;14.63;;;;;;;20.51;57.98;101177.44;5017637;28;20421;-82
2021/09/07 08:20:16;;;;;;;20.20;14.73;;;;;;;20.52;58.40;101176.47;5019160;28;20141;-83
2021/09/07 08:22:51;;;;;;;19.95;14.38;;;;;;;20.56;58.08;101186.03;5016815;28;20485;-82
2021/09/07 08:25:18;;;;;;;23.13;13.80;;;;;;;20.69;58.12;101181.44;5022661;28;20064;-82
2021/09/07 08:27:45;;;;;;;21.27;14.18;;;;;;;20.79;58.33;101181.56;5015415;28;20109;-82
2021/09/07 08:30:15;;;;;;;21.73;14.65;;;;;;;20.95;58.41;101184.78;5025637;28;20113;-83
2021/09/07 08:32:43;;;;;;;19.88;13.80;;;;;;;21.06;57.97;101183.97;5019775;28;20078;-82
2021/09/07 08:35:11;;;;;;;22.42;14.55;;;;;;;21.20;57.25;101181.94;5021459;28;20114;-82
2021/09/07 08:37:39;;;;;;;20.40;14.23;;;;;;;21.35;56.50;101183.41;5031314;28;20054;-81
2021/09/07 08:40:08;;;;;;;18.88;13.32;;;;;;;21.33;55.96;101182.66;5013942;28;20199;-80
2021/09/07 08:42:36;;;;;;;18.85;14.07;;;;;;;21.21;55.95;101182.78;5008004;28;20051;-81
2021/09/07 08:45:04;;;;;;;23.05;14.68;;;;;;;21.25;55.77;101179.72;5022050;28;20041;-81
2021/09/07 08:47:31;;;;;;;21.98;13.95;;;;;;;21.23;56.67;101181.69;5037132;28;20046;-81
2021/09/07 08:50:02;;;;;;;18.25;13.98;;;;;;;21.31;56.24;101178.38;5004284;28;20042;-81
2021/09/07 08:52:31;;;;;;;18.97;13.40;;;;;;;21.45;56.29;101185.34;5015427;28;20056;-81
2021/09/07 08:54:58;;;;;;;20.98;14.00;;;;;;;21.58;56.53;101178.84;5017117;28;20751;-81
2021/09/07 08:57:24;;;;;;;23.73;13.80;;;;;;;21.68;55.48;101185.25;5011906;28;20052;-81
2021/09/07 09:00:03;;;;;;;21.05;13.82;;;;;;;21.73;55.00;101182.16;5022731;28;20037;-81
2021/09/07 09:02:38;;;;;;;22.55;13.82;;;;;;;21.72;55.04;101183.16;5016744;28;20057;-81
2021/09/07 09:05:06;;;;;;;19.13;13.20;;;;;;;21.79;55.60;101178.97;5018104;28;20053;-81
2021/09/07 09:07:33;;;;;;;19.50;13.20;;;;;;;21.84;55.24;101184.84;5013895;28;20050;-81
2021/09/07 09:10:00;;;;;;;18.02;13.48;;;;;;;21.90;55.99;101191.56;5010201;28;20045;-81
2021/09/07 09:12:39;;;;;;;22.85;14.50;;;;;;;21.88;54.99;101185.47;5010679;28;20087;-81
2021/09/07 09:15:11;;;;;;;22.25;13.20;;;;;;;21.93;55.86;101186.78;5015382;28;20137;-81
2021/09/07 09:17:38;;;;;;;17.35;13.13;;;;;;;22.04;55.67;101186.78;5015269;28;20057;-80
2021/09/07 09:20:16;;;;;;;21.63;14.32;;;;;;;22.04;54.51;101189.47;5013442;28;20053;-81
2021/09/07 09:22:52;;;;;;;23.42;15.13;;;;;;;22.00;54.26;101182.66;5011051;28;20125;-81
2021/09/07 09:25:18;;;;;;;18.67;12.63;;;;;;;22.00;55.09;101182.66;5015435;28;20045;-81
2021/09/07 09:28:05;;;;;;;17.35;13.32;;;;;;;22.05;55.48;101188.50;4990438;28;20136;-81
2021/09/07 09:30:38;;;;;;;19.08;13.50;;;;;;;22.12;54.04;101185.31;5002957;28;20494;-80
2021/09/07 09:33:06;;;;;;;17.77;13.50;;;;;;;22.16;55.13;101190.31;5013555;28;20061;-80
2021/09/07 09:35:55;;;;;;;19.13;13.60;;;;;;;22.20;54.75;101188.22;5012702;28;20083;-80
2021/09/07 09:38:24;;;;;;;18.40;12.90;;;;;;;22.24;55.07;101184.28;5007621;28;20072;-80
2021/09/07 09:40:57;;;;;;;17.88;12.45;;;;;;;22.30;54.97;101190.03;5019059;28;20050;-80
2021/09/07 09:43:48;;;;;;;17.27;12.95;;;;;;;22.36;54.16;101194.91;5010774;28;20395;-80
2021/09/07 09:46:15;;;;;;;19.45;12.98;;;;;;;22.45;54.58;101187.88;5017328;28;20110;-80
2021/09/07 09:48:42;;;;;;;20.30;13.27;;;;;;;22.56;54.70;101185.13;5015818;28;20053;-80
2021/09/07 09:51:09;;;;;;;22.38;13.95;;;;;;;22.62;54.25;101183.75;5011403;28;20050;-81
2021/09/07 09:53:42;;;;;;;17.50;13.20;;;;;;;22.67;54.03;101186.91;5012560;28;20076;-81
2021/09/07 09:56:10;;;;;;;19.20;13.07;;;;;;;22.71;54.47;101181.13;5014198;28;20042;-81
2021/09/07 09:58:38;;;;;;;17.73;12.40;;;;;;;22.79;53.86;101177.81;5017195;28;20140;-81
2021/09/07 10:01:06;;;;;;;17.50;13.45;;;;;;;22.92;53.49;101186.56;5016372;28;20474;-80
2021/09/07 10:03:33;;;;;;;18.90;13.25;;;;;;;22.98;52.77;101179.78;5002736;28;20081;-80
2021/09/07 10:06:03;;;;;;;16.65;12.65;;;;;;;23.02;53.10;101181.22;5018204;28;20313;-80
2021/09/07 10:08:31;;;;;;;20.30;13.55;;;;;;;23.05;52.03;101176.41;5019013;28;20050;-80
2021/09/07 10:11:05;;;;;;;18.48;13.85;;;;;;;23.03;52.64;101174.81;5022598;28;20096;-80
2021/09/07 10:13:34;;;;;;;18.88;13.50;;;;;;;23.08;51.96;101175.28;4994574;28;21312;-80
2021/09/07 10:16:07;;;;;;;19.48;13.07;;;;;;;23.17;51.83;101171.78;5025737;28;20046;-79
2021/09/07 10:19:06;;;;;;;16.27;12.43;;;;;;;23.30;51.77;101175.09;5028012;28;20077;-81
2021/09/07 10:24:16;;;;;;;16.50;12.57;;;;;;;23.43;50.90;101161.38;5031851;28;20081;-82
2021/09/07 10:26:45;;;;;;;18.02;12.10;;;;;;;23.52;50.52;101152.47;5019248;28;20046;-82
2021/09/07 10:29:38;;;;;;;18.30;12.73;;;;;;;23.58;50.03;101151.94;5019988;28;20066;-80
2021/09/07 10:32:31;;;;;;;18.10;12.57;;;;;;;23.68;48.23;101151.97;5033056;28;20066;-80
2021/09/07 10:35:07;;;;;;;19.90;12.48;;;;;;;23.73;47.69;101157.81;5014341;28;20051;-80
2021/09/07 10:38:10;;;;;;;18.90;12.25;;;;;;;23.88;47.40;101148.31;5022578;28;20056;-81
2021/09/07 10:40:48;;;;;;;17.67;12.05;;;;;;;23.90;46.31;101143.63;5015001;28;20089;-81
2021/09/07 10:43:49;;;;;;;18.15;12.85;;;;;;;23.93;45.41;101150.59;4998043;28;20046;-81
2021/09/07 10:46:17;;;;;;;15.85;12.43;;;;;;;23.98;45.99;101140.22;4997521;28;20058;-81
2021/09/07 10:48:44;;;;;;;15.43;12.00;;;;;;;24.07;47.03;101140.25;4998536;28;20074;-82
2021/09/07 10:51:12;;;;;;;15.85;11.38;;;;;;;24.19;47.53;101132.84;5003674;28;20050;-82
2021/09/07 10:53:39;;;;;;;16.33;12.57;;;;;;;24.28;46.76;101136.56;5019461;28;20057;-82
2021/09/07 10:56:25;;;;;;;16.65;11.90;;;;;;;24.34;45.93;101125.16;5021264;28;20133;-82
2021/09/07 10:58:52;;;;;;;14.85;11.45;;;;;;;24.41;46.25;101123.59;5013448;28;20050;-82
2021/09/07 11:01:30;;;;;;;16.15;11.70;;;;;;;24.37;43.51;101120.34;5014892;28;20045;-82
2021/09/07 11:04:28;;;;;;;16.17;11.48;;;;;;;24.38;43.29;101119.34;5017437;28;20038;-83
2021/09/07 11:06:57;;;;;;;19.42;11.80;;;;;;;24.54;43.60;101118.75;5014851;28;20045;-82
2021/09/07 11:09:53;;;;;;;12.98;10.38;;;;;;;24.72;42.54;101118.84;5022212;28;20054;-82
2021/09/07 11:12:27;;;;;;;13.52;10.88;;;;;;;24.81;42.08;101120.69;5023740;28;20054;-81
2021/09/07 11:15:06;;;;;;;14.48;11.48;;;;;;;24.80;40.99;101122.53;5022779;28;20056;-83
2021/09/07 11:21:00;;;;;;;14.55;10.85;;;;;;;24.77;41.83;101124.69;5029352;28;20105;-81
2021/09/07 11:23:31;;;;;;;15.85;11.63;;;;;;;24.85;40.94;101115.84;5020967;28;20078;-82